Time;durP1;ratioP1;P1;durP2;ratioP2;P2;SDS_P1;SDS_P2;PMS_P1;PMS_P2;Temp;Humidity;BMP_temperature;BMP_pressure;BME280_temperature;BME280_humidity;BME280_pressure;Samples;Min_cycle;Max_cycle;Signal;HPM_P1;HPM_P2
2023/01/10 00:00:17;;;;;;;51.38;21.85;;;;;;;5.46;100.00;100827.03;2105720;28;20189;-63
2023/01/10 00:01:17;;;;;;;41.73;22.37;;;;;;;4.93;100.00;100740.28;2101384;28;20226;-62
2023/01/10 00:02:18;;;;;;;48.43;22.77;;;;;;;5.47;100.00;100819.56;2099400;28;20182;-63
2023/01/10 00:03:19;;;;;;;35.50;21.07;;;;;;;5.55;100.00;100829.38;2104914;28;20225;-62
2023/01/10 00:04:19;;;;;;;38.17;20.20;;;;;;;5.47;100.00;100825.84;2105401;28;20185;-62
2023/01/10 00:05:19;;;;;;;38.87;20.37;;;;;;;5.60;100.00;100834.50;2105739;28;20173;-62
2023/01/10 00:06:20;;;;;;;42.97;20.47;;;;;;;5.60;100.00;100823.50;2105129;28;20196;-62
2023/01/10 00:07:20;;;;;;;50.43;21.63;;;;;;;5.58;100.00;100820.34;2099356;28;20194;-62
2023/01/10 00:08:21;;;;;;;42.00;21.37;;;;;;;5.55;100.00;100821.13;2102658;28;20731;-63
2023/01/10 00:09:21;;;;;;;44.67;21.87;;;;;;;5.09;100.00;100763.44;2101857;28;20181;-62
2023/01/10 00:10:22;;;;;;;38.37;21.40;;;;;;;5.07;100.00;100748.53;2100098;28;20202;-62
2023/01/10 00:14:01;;;;;;;33.20;19.20;;;;;;;5.29;100.00;100774.81;2105302;28;20251;-62
2023/01/10 00:15:02;;;;;;;33.13;19.30;;;;;;;5.58;100.00;100829.38;2104994;28;20194;-62
2023/01/10 00:16:07;;;;;;;33.47;19.67;;;;;;;5.54;100.00;100825.84;2105630;28;20678;-62
2023/01/10 00:17:08;;;;;;;33.50;19.05;;;;;;;5.54;100.00;100828.59;2098788;28;20239;-62
2023/01/10 00:18:08;;;;;;;32.87;19.40;;;;;;;5.01;100.00;100748.13;2103709;28;20179;-62
2023/01/10 00:19:09;;;;;;;31.53;18.67;;;;;;;5.48;100.00;100821.16;2097465;28;20179;-62
2023/01/10 00:20:10;;;;;;;31.43;18.50;;;;;;;5.53;100.00;100829.00;2097203;28;20181;-63
2023/01/10 00:21:11;;;;;;;35.37;19.77;;;;;;;5.56;100.00;100829.00;2103338;28;20232;-62
2023/01/10 00:22:11;;;;;;;34.43;19.80;;;;;;;5.57;100.00;100816.81;2105631;28;20444;-62
2023/01/10 00:23:12;;;;;;;36.20;20.00;;;;;;;5.50;100.00;100814.09;2096019;28;20625;-62
2023/01/10 00:24:17;;;;;;;43.00;20.00;;;;;;;5.45;100.00;100814.47;2093691;28;20180;-62
2023/01/10 00:25:20;;;;;;;39.60;19.35;;;;;;;5.39;100.00;100804.25;2096953;28;20167;-63
2023/01/10 00:26:20;;;;;;;47.95;19.90;;;;;;;5.33;100.00;100792.09;2098151;28;20240;-62
2023/01/10 00:27:24;;;;;;;42.60;21.30;;;;;;;5.26;100.00;100781.09;2105562;28;20210;-63
2023/01/10 00:28:24;;;;;;;47.13;20.50;;;;;;;5.24;100.00;100784.22;2105620;28;20204;-62
2023/01/10 00:29:27;;;;;;;38.10;19.90;;;;;;;5.30;100.00;100793.66;2105904;28;20252;-63
2023/01/10 00:30:27;;;;;;;39.25;20.92;;;;;;;5.02;100.00;100740.69;2105599;28;20579;-62
2023/01/10 00:31:28;;;;;;;33.80;19.90;;;;;;;5.41;100.00;100810.13;2105444;28;20187;-63
2023/01/10 00:32:28;;;;;;;37.53;20.80;;;;;;;5.45;100.00;100814.47;2105411;28;20258;-63
2023/01/10 00:33:30;;;;;;;37.20;19.87;;;;;;;4.88;100.00;100721.44;2105208;28;20218;-63
2023/01/10 00:34:31;;;;;;;36.40;19.45;;;;;;;5.52;100.00;100813.66;2104751;28;20202;-63
2023/01/10 00:35:32;;;;;;;39.13;19.43;;;;;;;5.52;100.00;100808.97;2104002;28;20248;-63
2023/01/10 00:36:32;;;;;;;36.80;19.73;;;;;;;4.74;100.00;100697.50;2097222;28;20204;-63
2023/01/10 00:37:33;;;;;;;41.67;20.87;;;;;;;5.53;100.00;100812.50;2105759;28;20649;-63
2023/01/10 00:38:34;;;;;;;42.47;19.73;;;;;;;5.53;100.00;100799.53;2105333;28;20194;-62
2023/01/10 00:39:35;;;;;;;36.70;19.85;;;;;;;5.54;100.00;100800.34;2105682;28;20550;-62
2023/01/10 00:40:35;;;;;;;43.03;21.30;;;;;;;5.51;100.00;100798.34;2105379;28;20213;-62
2023/01/10 00:44:14;;;;;;;56.03;20.70;;;;;;;5.53;100.00;100791.28;2098804;28;20179;-62
2023/01/10 00:45:15;;;;;;;49.63;20.50;;;;;;;5.53;100.00;100790.53;2096275;28;20623;-63
2023/01/10 00:46:15;;;;;;;48.65;21.42;;;;;;;5.55;100.00;100799.16;2096288;28;20236;-62
2023/01/10 00:47:17;;;;;;;39.27;20.60;;;;;;;5.53;100.00;100798.78;2100530;28;20190;-63
2023/01/10 00:48:18;;;;;;;56.70;20.35;;;;;;;5.46;100.00;100791.31;2105190;28;20203;-63
2023/01/10 00:49:18;;;;;;;45.23;21.37;;;;;;;5.41;100.00;100783.47;2104473;28;20176;-62
2023/01/10 00:50:19;;;;;;;49.50;21.87;;;;;;;5.48;100.00;100791.69;2088247;28;20310;-62
2023/01/10 00:51:19;;;;;;;47.00;20.60;;;;;;;4.30;100.00;100601.03;2096449;28;20180;-63
2023/01/10 00:52:20;;;;;;;44.17;21.20;;;;;;;5.48;100.00;100797.19;2105642;28;20699;-63
2023/01/10 00:53:21;;;;;;;41.50;20.93;;;;;;;5.42;100.00;100778.72;2105182;28;20183;-62
2023/01/10 00:54:21;;;;;;;38.00;20.73;;;;;;;5.31;100.00;100755.97;2099970;28;20270;-62
2023/01/10 00:55:22;;;;;;;49.93;20.77;;;;;;;5.52;100.00;100789.72;2100628;28;20191;-63
2023/01/10 00:56:22;;;;;;;46.10;21.47;;;;;;;5.51;100.00;100792.84;2102501;28;20203;-63
2023/01/10 00:57:22;;;;;;;51.90;21.70;;;;;;;4.59;100.00;100659.44;2097108;28;20722;-63
2023/01/10 00:58:23;;;;;;;45.17;20.70;;;;;;;5.51;100.00;100803.84;2096961;28;20179;-62
2023/01/10 00:59:23;;;;;;;42.47;21.47;;;;;;;5.52;100.00;100805.41;2097489;28;20187;-62
2023/01/10 01:00:24;;;;;;;41.53;21.57;;;;;;;5.53;100.00;100813.28;2104346;28;20625;-62
2023/01/10 01:01:24;;;;;;;41.37;22.27;;;;;;;5.54;100.00;100814.84;2105206;28;20197;-63
2023/01/10 01:02:25;;;;;;;43.70;21.70;;;;;;;5.55;100.00;100829.38;2103679;28;20191;-63
2023/01/10 01:03:25;;;;;;;43.87;22.63;;;;;;;5.49;100.00;100787.75;2101455;28;20726;-62
2023/01/10 01:04:26;;;;;;;75.83;23.03;;;;;;;5.02;100.00;100718.72;2096394;28;20176;-63
2023/01/10 01:05:26;;;;;;;71.00;22.50;;;;;;;5.48;100.00;100777.19;2098242;28;20255;-62
2023/01/10 01:06:27;;;;;;;64.53;22.73;;;;;;;5.50;100.00;100785.81;2104846;28;20185;-62
2023/01/10 01:07:27;;;;;;;55.37;22.40;;;;;;;5.48;100.00;100779.91;2105727;28;20261;-63
2023/01/10 01:08:28;;;;;;;42.07;22.20;;;;;;;5.48;100.00;100782.66;2105186;28;20230;-62
2023/01/10 01:09:29;;;;;;;48.77;21.83;;;;;;;5.40;100.00;100770.91;2105497;28;20194;-62
2023/01/10 01:10:29;;;;;;;48.13;22.38;;;;;;;5.53;100.00;100780.28;2100057;28;20178;-63
2023/01/10 01:11:30;;;;;;;57.47;22.17;;;;;;;5.52;100.00;100781.47;2096534;28;20198;-62
2023/01/10 01:12:30;;;;;;;49.53;21.97;;;;;;;5.48;100.00;100788.16;2096762;28;24083;-63
2023/01/10 01:13:31;;;;;;;40.67;20.23;;;;;;;5.48;100.00;100779.91;2096685;28;20182;-63
2023/01/10 01:14:31;;;;;;;56.03;21.77;;;;;;;5.48;100.00;100788.94;2104567;28;20217;-63
2023/01/10 01:15:33;;;;;;;37.53;20.57;;;;;;;4.85;100.00;100703.00;2105785;28;20205;-63
2023/01/10 01:16:34;;;;;;;33.90;20.33;;;;;;;5.51;100.00;100806.59;2104719;28;20669;-62
2023/01/10 01:17:34;;;;;;;39.37;20.83;;;;;;;5.53;100.00;100799.53;2098936;28;20597;-63
2023/01/10 01:18:35;;;;;;;39.90;20.10;;;;;;;4.94;100.00;100708.88;2096990;28;20221;-62
2023/01/10 01:19:35;;;;;;;35.83;20.17;;;;;;;5.38;100.00;100778.72;2105432;28;20216;-62
2023/01/10 01:20:37;;;;;;;34.03;20.37;;;;;;;5.49;100.00;100792.47;2107924;28;20234;-62
2023/01/10 01:21:38;;;;;;;38.85;20.40;;;;;;;5.44;100.00;100788.16;2098611;28;20277;-62
2023/01/10 01:22:39;;;;;;;34.73;19.73;;;;;;;5.37;100.00;100774.41;2104415;28;20175;-62
2023/01/10 01:23:40;;;;;;;32.58;19.40;;;;;;;5.40;100.00;100781.88;2096815;28;20171;-63
2023/01/10 01:24:40;;;;;;;34.27;17.33;;;;;;;5.32;100.00;100796.81;2096253;28;20572;-62
2023/01/10 01:25:41;;;;;;;35.37;19.50;;;;;;;5.31;100.00;100775.19;2104067;28;20278;-63
2023/01/10 01:26:42;;;;;;;32.73;18.73;;;;;;;5.39;100.00;100783.03;2104803;28;20218;-62
2023/01/10 01:27:42;;;;;;;34.90;19.53;;;;;;;5.06;100.00;100733.22;2100882;28;20260;-63
2023/01/10 01:28:43;;;;;;;30.90;17.83;;;;;;;5.38;100.00;100789.72;2096785;28;20612;-63
2023/01/10 01:29:43;;;;;;;34.87;19.80;;;;;;;5.39;100.00;100780.28;2097055;28;20176;-62
2023/01/10 01:30:44;;;;;;;41.73;19.43;;;;;;;5.34;100.00;100788.16;2097674;28;20174;-62
2023/01/10 01:31:44;;;;;;;42.07;20.37;;;;;;;5.29;100.00;100783.06;2105277;28;20250;-63
2023/01/10 01:32:45;;;;;;;39.33;20.00;;;;;;;5.27;100.00;100786.19;2097167;28;20751;-63
2023/01/10 01:33:46;;;;;;;38.10;20.13;;;;;;;5.28;100.00;100792.50;2103722;28;20221;-63
2023/01/10 01:34:47;;;;;;;35.37;19.73;;;;;;;5.29;100.00;100789.31;2098825;28;20559;-63
2023/01/10 01:35:49;;;;;;;37.37;20.03;;;;;;;5.23;100.00;100776.41;2101787;28;20561;-62
2023/01/10 01:36:50;;;;;;;32.97;19.95;;;;;;;5.08;100.00;100766.56;2105032;28;20613;-63
2023/01/10 01:37:51;;;;;;;36.78;20.17;;;;;;;5.13;100.00;100768.94;2102252;28;20196;-62
2023/01/10 01:38:51;;;;;;;33.63;19.37;;;;;;;5.18;100.00;100785.03;2098679;28;20176;-63
2023/01/10 01:39:52;;;;;;;38.27;19.67;;;;;;;5.18;100.00;100791.28;2096176;28;20172;-63
2023/01/10 01:40:52;;;;;;;39.50;20.67;;;;;;;5.12;100.00;100775.63;2096445;28;20672;-62
2023/01/10 01:41:55;;;;;;;41.43;20.20;;;;;;;5.21;100.00;100784.22;2105005;28;20214;-62
2023/01/10 01:42:56;;;;;;;36.15;20.10;;;;;;;5.19;100.00;100778.34;2098173;28;20188;-62
2023/01/10 01:44:02;;;;;;;39.40;20.33;;;;;;;5.20;100.00;100782.66;2102333;28;20221;-62
2023/01/10 01:45:21;;;;;;;39.05;19.65;;;;;;;5.20;100.00;100794.44;2104557;28;20194;-63
2023/01/10 01:46:22;;;;;;;35.08;20.10;;;;;;;5.22;100.00;100794.03;2088995;28;20275;-62
2023/01/10 01:47:26;;;;;;;32.90;19.23;;;;;;;5.23;100.00;100806.63;2093363;28;20188;-62
2023/01/10 01:48:35;;;;;;;38.75;20.85;;;;;;;5.28;100.00;100818.00;2100150;28;20613;-62
2023/01/10 01:49:41;;;;;;;43.10;20.27;;;;;;;4.24;100.00;100627.28;2097137;28;20187;-62
2023/01/10 01:50:54;;;;;;;50.00;21.33;;;;;;;5.22;100.00;100794.84;2096644;28;20227;-63
2023/01/10 01:52:01;;;;;;;41.28;20.08;;;;;;;5.21;100.00;100790.53;2101876;28;20191;-63
2023/01/10 01:53:09;;;;;;;38.40;20.48;;;;;;;5.15;100.00;100788.53;2100320;28;20661;-63
2023/01/10 01:54:11;;;;;;;42.35;20.55;;;;;;;5.16;100.00;100790.09;2096696;28;20199;-62
2023/01/10 01:55:12;;;;;;;38.22;20.40;;;;;;;4.76;100.00;100733.59;2099896;28;20557;-63
2023/01/10 01:56:26;;;;;;;47.43;21.53;;;;;;;5.19;100.00;100787.38;2102362;28;20206;-62
2023/01/10 01:57:30;;;;;;;39.22;20.60;;;;;;;5.16;100.00;100785.41;2096960;28;20214;-62
2023/01/10 01:58:43;;;;;;;34.00;19.48;;;;;;;5.14;100.00;100784.25;2096764;28;20172;-63
2023/01/10 01:59:48;;;;;;;31.83;18.58;;;;;;;5.11;100.00;100791.28;2097061;28;20188;-62
2023/01/10 02:00:48;;;;;;;36.97;20.52;;;;;;;5.05;100.00;100776.38;2097130;28;20148;-62
2023/01/10 02:01:53;;;;;;;35.53;19.50;;;;;;;5.08;100.00;100786.56;2087447;28;20264;-62
2023/01/10 02:02:56;;;;;;;36.03;20.25;;;;;;;5.12;100.00;100778.34;2094765;28;20236;-63
2023/01/10 02:04:06;;;;;;;34.13;19.75;;;;;;;5.17;100.00;100786.97;2096694;28;20714;-63
2023/01/10 02:05:09;;;;;;;36.00;20.58;;;;;;;4.49;100.00;100671.19;2096467;28;20175;-62
2023/01/10 02:06:11;;;;;;;33.25;19.33;;;;;;;5.07;100.00;100752.03;2099874;28;20206;-62
2023/01/10 02:07:12;;;;;;;34.55;20.23;;;;;;;5.26;100.00;100765.41;2105110;28;20194;-63
2023/01/10 02:08:13;;;;;;;33.33;19.88;;;;;;;5.10;100.00;100762.25;2098449;28;20195;-63
2023/01/10 02:09:25;;;;;;;34.70;20.67;;;;;;;4.93;100.00;100756.75;2096938;28;20226;-62
2023/01/10 02:10:51;;;;;;;33.45;19.85;;;;;;;4.93;100.00;100765.00;2096728;28;20648;-62
2023/01/10 02:11:53;;;;;;;32.50;19.67;;;;;;;4.99;100.00;100764.22;2104977;28;20169;-62
2023/01/10 02:12:57;;;;;;;34.05;20.40;;;;;;;5.06;100.00;100771.66;2105090;28;20187;-62
2023/01/10 02:13:59;;;;;;;31.55;19.92;;;;;;;5.10;100.00;100775.19;2104514;28;20187;-63
2023/01/10 02:15:00;;;;;;;32.85;20.92;;;;;;;4.60;100.00;100693.94;2104572;28;20269;-62
2023/01/10 02:16:01;;;;;;;29.33;18.75;;;;;;;5.11;100.00;100774.03;2100125;28;20196;-62
2023/01/10 02:17:01;;;;;;;30.20;19.70;;;;;;;5.07;100.00;100763.03;2099824;28;20264;-62
2023/01/10 02:18:03;;;;;;;33.40;20.10;;;;;;;5.10;100.00;100765.00;2102790;28;20186;-62
2023/01/10 02:19:09;;;;;;;30.75;20.23;;;;;;;5.12;100.00;100767.38;2097985;28;20589;-63
2023/01/10 02:20:11;;;;;;;31.70;19.27;;;;;;;5.13;100.00;100760.69;2105025;28;20155;-62
2023/01/10 02:21:24;;;;;;;32.15;19.92;;;;;;;5.13;100.00;100753.22;2104579;28;20175;-62
2023/01/10 02:22:39;;;;;;;30.88;19.20;;;;;;;5.09;100.00;100757.16;2097385;28;20278;-62
2023/01/10 02:23:48;;;;;;;31.05;19.27;;;;;;;5.10;100.00;100759.50;2104841;28;20244;-62
2023/01/10 02:25:22;;;;;;;30.60;18.70;;;;;;;5.11;100.00;100758.34;2099204;28;20154;-63
2023/01/10 02:26:25;;;;;;;32.17;19.38;;;;;;;5.19;100.00;100779.13;2101038;28;20691;-63
2023/01/10 02:27:59;;;;;;;32.45;19.42;;;;;;;4.89;100.00;100732.03;2102279;28;20181;-62
2023/01/10 02:29:30;;;;;;;35.55;19.85;;;;;;;5.18;100.00;100774.81;2099011;28;20199;-62
2023/01/10 02:30:33;;;;;;;32.40;19.73;;;;;;;5.24;100.00;100772.47;2098152;28;20184;-63
2023/01/10 02:32:05;;;;;;;35.47;20.02;;;;;;;5.28;100.00;100776.00;2097856;28;20179;-63
2023/01/10 02:33:30;;;;;;;32.13;19.23;;;;;;;5.31;100.00;100767.75;2097866;28;20191;-63
2023/01/10 02:35:06;;;;;;;35.22;20.67;;;;;;;5.31;100.00;100773.25;2103126;28;20183;-62
2023/01/10 02:36:16;;;;;;;34.25;19.92;;;;;;;5.31;100.00;100775.19;2080710;28;20200;-62
2023/01/10 02:37:44;;;;;;;36.15;21.05;;;;;;;5.27;100.00;100772.47;2098052;28;20168;-62
2023/01/10 02:38:59;;;;;;;39.63;21.58;;;;;;;5.26;100.00;100772.84;2106382;28;20620;-62
2023/01/10 02:40:21;;;;;;;34.22;20.88;;;;;;;5.27;100.00;100777.97;2103042;28;20537;-62
2023/01/10 02:41:44;;;;;;;35.08;20.17;;;;;;;5.30;100.00;100787.38;2102965;28;20179;-62
2023/01/10 02:43:03;;;;;;;37.08;20.25;;;;;;;5.37;100.00;100781.88;2106176;28;20205;-63
2023/01/10 02:44:10;;;;;;;36.08;20.95;;;;;;;5.37;100.00;100777.16;2097981;28;20184;-63
2023/01/10 02:45:37;;;;;;;32.05;20.35;;;;;;;5.41;100.00;100780.72;2097655;28;20703;-63
2023/01/10 02:46:39;;;;;;;34.83;21.13;;;;;;;5.45;100.00;100783.44;2093967;28;20227;-62
2023/01/10 02:47:40;;;;;;;35.65;20.90;;;;;;;5.43;100.00;100791.31;2106299;28;20170;-62
2023/01/10 02:48:41;;;;;;;34.72;21.40;;;;;;;5.45;100.00;100792.50;2104896;28;20198;-63
2023/01/10 02:49:47;;;;;;;33.57;20.87;;;;;;;5.48;100.00;100788.94;2099050;28;20202;-63
2023/01/10 02:51:02;;;;;;;34.83;20.58;;;;;;;5.52;100.00;100786.97;2097789;28;20212;-62
2023/01/10 02:52:03;;;;;;;35.85;20.98;;;;;;;5.51;100.00;100779.91;2106047;28;20286;-62
2023/01/10 02:53:17;;;;;;;32.37;20.20;;;;;;;5.47;100.00;100776.38;2106329;28;20274;-62
2023/01/10 02:54:23;;;;;;;37.28;20.33;;;;;;;4.92;100.00;100690.06;2098741;28;20250;-62
2023/01/10 02:55:36;;;;;;;34.92;20.88;;;;;;;5.50;100.00;100777.56;2098129;28;20244;-62
2023/01/10 02:57:09;;;;;;;36.90;20.58;;;;;;;4.79;100.00;100666.13;2096174;28;20195;-63
2023/01/10 02:58:24;;;;;;;35.22;19.90;;;;;;;5.44;100.00;100779.91;2052141;28;20249;-62
2023/01/10 02:59:46;;;;;;;34.00;19.95;;;;;;;5.44;100.00;100781.88;2099406;28;20242;-62
2023/01/10 03:01:16;;;;;;;35.53;20.77;;;;;;;5.42;100.00;100782.28;2102453;28;20641;-62
2023/01/10 03:02:38;;;;;;;35.97;20.98;;;;;;;5.41;100.00;100779.91;2094606;28;20203;-62
2023/01/10 03:04:16;;;;;;;37.85;21.38;;;;;;;5.35;100.00;100768.53;2097934;28;20174;-61
2023/01/10 03:05:34;;;;;;;35.42;20.45;;;;;;;4.80;100.00;100687.72;2094866;28;20206;-62
2023/01/10 03:07:03;;;;;;;36.50;20.10;;;;;;;5.29;100.00;100758.34;2101161;28;20269;-62
2023/01/10 03:08:25;;;;;;;32.92;19.85;;;;;;;5.24;100.00;100754.00;2098497;28;20221;-61
2023/01/10 03:09:39;;;;;;;35.20;19.90;;;;;;;5.22;100.00;100758.31;2098251;28;20560;-62
2023/01/10 03:10:45;;;;;;;34.03;20.05;;;;;;;5.20;100.00;100749.69;2097863;28;20652;-61
2023/01/10 03:11:48;;;;;;;34.33;19.55;;;;;;;4.87;100.00;100700.66;2097717;28;20653;-61
2023/01/10 03:13:09;;;;;;;36.38;19.90;;;;;;;5.24;100.00;100756.75;2105853;28;20195;-61
2023/01/10 03:14:19;;;;;;;34.65;19.67;;;;;;;5.22;100.00;100758.31;2102924;28;20175;-61
2023/01/10 03:15:21;;;;;;;32.50;20.80;;;;;;;5.22;100.00;100756.38;2097521;28;20270;-62
2023/01/10 03:16:27;;;;;;;35.28;20.83;;;;;;;5.20;100.00;100750.50;2105895;28;20179;-61
2023/01/10 03:17:29;;;;;;;33.35;20.20;;;;;;;4.75;100.00;100687.31;2098083;28;20679;-61
2023/01/10 03:18:34;;;;;;;33.10;20.25;;;;;;;5.22;100.00;100750.06;2104897;28;20783;-61
2023/01/10 03:19:43;;;;;;;38.55;20.13;;;;;;;5.21;100.00;100749.31;2106386;28;20248;-61
2023/01/10 03:20:46;;;;;;;32.92;19.60;;;;;;;5.26;100.00;100756.34;2099446;28;20742;-62
2023/01/10 03:21:51;;;;;;;35.05;19.75;;;;;;;5.21;100.00;100737.53;2103336;28;20244;-61
2023/01/10 03:22:54;;;;;;;35.28;20.52;;;;;;;4.64;100.00;100654.38;2106096;28;20278;-61
2023/01/10 03:24:03;;;;;;;33.17;20.48;;;;;;;5.21;100.00;100737.53;2105648;28;20218;-61
2023/01/10 03:25:08;;;;;;;41.03;21.45;;;;;;;5.18;100.00;100736.34;2100964;28;20215;-62
2023/01/10 03:26:10;;;;;;;37.67;19.88;;;;;;;5.07;100.00;100721.84;2101145;28;20203;-61
2023/01/10 03:27:29;;;;;;;38.00;20.92;;;;;;;5.15;100.00;100737.16;2103197;28;20265;-62
2023/01/10 03:28:37;;;;;;;33.58;20.38;;;;;;;5.16;100.00;100744.22;2097790;28;20215;-61
2023/01/10 03:30:15;;;;;;;31.75;20.05;;;;;;;5.25;100.00;100758.34;2101837;28;20179;-61
2023/01/10 03:31:22;;;;;;;32.47;18.33;;;;;;;4.92;100.00;100706.53;2066113;28;20300;-62
2023/01/10 03:32:27;;;;;;;32.78;19.83;;;;;;;5.35;100.00;100765.00;2097677;28;20269;-62
2023/01/10 03:33:30;;;;;;;32.80;20.27;;;;;;;5.31;100.00;100755.97;2097170;28;20187;-61
2023/01/10 03:34:31;;;;;;;31.50;19.58;;;;;;;4.81;100.00;100689.28;2096769;28;20208;-61
2023/01/10 03:36:06;;;;;;;28.30;18.73;;;;;;;5.11;100.00;100719.88;2097569;28;20192;-61
2023/01/10 03:37:22;;;;;;;30.25;18.63;;;;;;;5.43;100.00;100766.56;2094685;28;20200;-61
2023/01/10 03:38:43;;;;;;;33.03;19.13;;;;;;;5.10;100.00;100706.53;2105756;28;20216;-61
2023/01/10 03:39:50;;;;;;;31.30;18.67;;;;;;;5.41;100.00;100757.94;2099422;28;20194;-61
2023/01/10 03:41:31;;;;;;;29.83;18.40;;;;;;;5.35;100.00;100754.81;2104380;28;20170;-62
2023/01/10 03:44:44;;;;;;;26.20;15.60;;;;;;;5.33;100.00;100748.91;2097415;28;20191;-61
2023/01/10 03:45:58;;;;;;;26.35;17.10;;;;;;;5.30;100.00;100746.97;2087950;28;20220;-61
2023/01/10 03:47:37;;;;;;;28.27;17.17;;;;;;;5.25;100.00;100750.09;2105564;28;20217;-62
2023/01/10 03:48:43;;;;;;;28.80;17.38;;;;;;;5.07;100.00;100724.59;2101147;28;20218;-61
2023/01/10 03:49:48;;;;;;;31.13;18.70;;;;;;;5.26;100.00;100757.16;2106094;28;20202;-62
2023/01/10 03:50:50;;;;;;;29.02;18.75;;;;;;;5.27;100.00;100750.47;2105696;28;20225;-62
2023/01/10 03:51:52;;;;;;;30.65;18.35;;;;;;;5.25;100.00;100752.06;2099037;28;20203;-61
2023/01/10 03:52:53;;;;;;;30.48;18.52;;;;;;;5.26;100.00;100748.13;2097237;28;20196;-62
2023/01/10 03:53:53;;;;;;;27.43;18.10;;;;;;;5.20;100.00;100742.25;2096939;28;20196;-61
2023/01/10 03:54:54;;;;;;;28.10;17.17;;;;;;;5.19;100.00;100748.91;2096821;28;20190;-61
2023/01/10 03:55:54;;;;;;;27.30;16.93;;;;;;;5.18;100.00;100749.31;2099646;28;20187;-62
2023/01/10 03:56:55;;;;;;;26.13;16.87;;;;;;;4.61;100.00;100657.13;2104447;28;20171;-62
2023/01/10 03:57:56;;;;;;;26.43;16.93;;;;;;;5.24;100.00;100754.00;2097620;28;20182;-62
2023/01/10 03:58:57;;;;;;;24.20;16.17;;;;;;;5.24;100.00;100754.00;2096747;28;20680;-61
2023/01/10 03:59:58;;;;;;;28.70;17.67;;;;;;;5.30;100.00;100771.69;2089540;28;20207;-61
2023/01/10 04:00:59;;;;;;;28.02;16.80;;;;;;;5.36;100.00;100770.09;2102346;28;20194;-62
2023/01/10 04:02:00;;;;;;;27.23;16.63;;;;;;;4.59;100.00;100642.97;2100094;28;20187;-62
2023/01/10 04:03:00;;;;;;;25.53;17.33;;;;;;;5.33;100.00;100762.63;2101205;28;20194;-61
2023/01/10 04:04:01;;;;;;;28.03;17.07;;;;;;;5.38;100.00;100765.00;2102737;28;20178;-61
2023/01/10 04:05:01;;;;;;;27.20;17.23;;;;;;;5.39;100.00;100761.06;2098100;28;20183;-62
2023/01/10 04:06:03;;;;;;;26.27;16.70;;;;;;;5.33;100.00;100754.41;2105637;28;20171;-62
2023/01/10 04:07:03;;;;;;;25.77;16.83;;;;;;;5.30;100.00;100759.91;2105431;28;20251;-61
2023/01/10 04:08:04;;;;;;;25.97;15.87;;;;;;;5.18;100.00;100741.84;2105531;28;20194;-61
2023/01/10 04:09:04;;;;;;;23.53;15.70;;;;;;;5.37;100.00;100762.63;2099273;28;20180;-61
2023/01/10 04:10:06;;;;;;;22.93;15.13;;;;;;;5.42;100.00;100773.22;2097468;28;20602;-62
2023/01/10 04:11:06;;;;;;;24.50;15.75;;;;;;;5.42;100.00;100768.53;2096876;28;20190;-62
2023/01/10 04:12:06;;;;;;;28.00;16.87;;;;;;;5.24;100.00;100745.75;2097302;28;20194;-62
2023/01/10 04:13:07;;;;;;;21.70;14.97;;;;;;;5.47;100.00;100772.84;2102858;28;20270;-62
2023/01/10 04:14:07;;;;;;;24.37;15.50;;;;;;;5.53;100.00;100787.78;2104776;28;20183;-61
2023/01/10 04:15:08;;;;;;;24.77;16.13;;;;;;;5.18;100.00;100739.09;2087982;28;20204;-62
2023/01/10 04:16:10;;;;;;;25.83;16.67;;;;;;;5.54;100.00;100786.59;2096049;28;20295;-62
2023/01/10 04:17:10;;;;;;;25.65;15.98;;;;;;;5.51;100.00;100777.16;2098495;28;20234;-62
2023/01/10 04:18:11;;;;;;;23.60;15.83;;;;;;;5.48;100.00;100772.44;2102940;28;20270;-61
2023/01/10 04:19:12;;;;;;;24.10;15.70;;;;;;;5.37;100.00;100757.13;2101289;28;20665;-61
2023/01/10 04:20:12;;;;;;;20.40;13.60;;;;;;;5.47;100.00;100765.38;2097232;28;20594;-62
2023/01/10 04:21:13;;;;;;;22.90;15.13;;;;;;;5.37;100.00;100757.13;2098921;28;20194;-62
2023/01/10 04:22:13;;;;;;;21.67;14.50;;;;;;;5.25;100.00;100746.56;2104725;28;20230;-62
2023/01/10 04:23:14;;;;;;;21.87;14.60;;;;;;;4.25;100.00;100582.22;2096819;28;20262;-62
2023/01/10 04:24:14;;;;;;;22.10;14.63;;;;;;;5.37;100.00;100746.94;2097147;28;20225;-63
2023/01/10 04:25:15;;;;;;;21.93;13.93;;;;;;;5.40;100.00;100754.41;2096444;28;20175;-62
2023/01/10 04:26:15;;;;;;;19.43;13.77;;;;;;;4.25;100.00;100551.28;2096897;28;20200;-62
2023/01/10 04:27:16;;;;;;;22.30;13.57;;;;;;;5.42;100.00;100734.75;2101668;28;20194;-62
2023/01/10 04:28:17;;;;;;;19.73;13.63;;;;;;;5.37;100.00;100737.91;2105411;28;20291;-62
2023/01/10 04:29:17;;;;;;;20.03;13.97;;;;;;;5.39;100.00;100741.81;2105490;28;20247;-62
2023/01/10 04:30:18;;;;;;;23.53;14.03;;;;;;;5.41;100.00;100742.22;2104374;28;20243;-62
2023/01/10 04:31:18;;;;;;;21.30;13.43;;;;;;;5.44;100.00;100738.69;2096922;28;20210;-62
2023/01/10 04:32:19;;;;;;;18.87;12.57;;;;;;;5.47;100.00;100737.91;2105805;28;20175;-62
2023/01/10 04:33:19;;;;;;;20.27;13.10;;;;;;;5.48;100.00;100739.47;2098126;28;20605;-62
2023/01/10 04:34:20;;;;;;;19.10;12.87;;;;;;;5.47;100.00;100731.59;2102652;28;20183;-62
2023/01/10 04:35:20;;;;;;;19.93;13.07;;;;;;;5.47;100.00;100721.41;2105443;28;20575;-61
2023/01/10 04:36:21;;;;;;;19.43;13.83;;;;;;;5.51;100.00;100724.16;2101305;28;20180;-62
2023/01/10 04:37:21;;;;;;;21.00;13.67;;;;;;;5.50;100.00;100717.09;2099740;28;20249;-61
2023/01/10 04:38:22;;;;;;;19.30;12.87;;;;;;;5.46;100.00;100708.06;2105347;28;20178;-62
2023/01/10 04:39:23;;;;;;;19.70;13.27;;;;;;;4.39;100.00;100534.78;2105067;28;20179;-63
2023/01/10 04:40:23;;;;;;;20.70;13.67;;;;;;;5.39;100.00;100695.09;2105462;28;20197;-62
2023/01/10 04:41:24;;;;;;;23.97;14.27;;;;;;;5.21;100.00;100688.88;2097939;28;20183;-62
2023/01/10 04:42:24;;;;;;;22.93;15.10;;;;;;;5.06;100.00;100673.56;2103226;28;20190;-62
2023/01/10 04:43:26;;;;;;;20.50;13.87;;;;;;;3.80;100.00;100465.03;2100109;28;20556;-62
2023/01/10 04:44:26;;;;;;;25.35;15.75;;;;;;;5.16;100.00;100666.50;2096404;28;20308;-62
2023/01/10 04:45:26;;;;;;;23.40;15.13;;;;;;;5.24;100.00;100668.81;2096685;28;20257;-62
2023/01/10 04:46:27;;;;;;;22.17;15.13;;;;;;;5.29;100.00;100679.41;2098055;28;20218;-62
2023/01/10 04:47:27;;;;;;;20.07;14.57;;;;;;;5.38;100.00;100679.03;2105411;28;20175;-61
2023/01/10 04:48:28;;;;;;;23.27;15.20;;;;;;;5.40;100.00;100682.16;2105405;28;20206;-62
2023/01/10 04:49:28;;;;;;;26.37;14.40;;;;;;;5.42;100.00;100677.84;2097575;28;20211;-62
2023/01/10 04:50:29;;;;;;;22.10;14.10;;;;;;;5.41;100.00;100673.53;2096853;28;20253;-62
2023/01/10 04:51:29;;;;;;;22.93;15.53;;;;;;;5.37;100.00;100671.94;2093316;28;20235;-62
2023/01/10 04:52:30;;;;;;;24.07;15.93;;;;;;;5.34;100.00;100668.03;2092114;28;20200;-62
2023/01/10 04:53:30;;;;;;;23.67;16.00;;;;;;;5.32;100.00;100670.41;2100009;28;20201;-62
2023/01/10 04:54:31;;;;;;;23.23;15.50;;;;;;;5.33;100.00;100679.44;2104706;28;20601;-62
2023/01/10 04:55:32;;;;;;;22.23;15.37;;;;;;;4.64;100.00;100577.53;2104864;28;20199;-63
2023/01/10 04:56:33;;;;;;;24.92;15.68;;;;;;;5.36;100.00;100703.38;2096769;28;20654;-62
2023/01/10 04:57:33;;;;;;;20.20;14.50;;;;;;;5.32;100.00;100703.38;2097320;28;20198;-63
2023/01/10 04:58:35;;;;;;;24.63;16.07;;;;;;;5.40;100.00;100721.44;2096910;28;20196;-62
2023/01/10 04:59:36;;;;;;;22.98;15.95;;;;;;;5.43;100.00;100728.09;2102888;28;20269;-63
2023/01/10 05:00:37;;;;;;;22.10;15.40;;;;;;;5.49;100.00;100732.00;2101627;28;20191;-62
2023/01/10 05:01:37;;;;;;;21.27;15.17;;;;;;;5.52;100.00;100742.19;2099343;28;21212;-61
2023/01/10 05:02:44;;;;;;;22.47;15.07;;;;;;;4.75;100.00;100611.22;2103190;28;20201;-61